createdAt,value
2019-06-20T00:00:52.425Z,25.30
2019-06-20T00:03:21.249Z,25.30
2019-06-20T00:05:50.119Z,25.30
2019-06-20T00:08:18.981Z,25.30
2019-06-20T00:10:47.789Z,25.20
2019-06-20T00:13:16.678Z,25.20
2019-06-20T00:15:45.501Z,25.10
2019-06-20T00:18:14.326Z,25.10
2019-06-20T00:20:43.245Z,25.00
2019-06-20T00:23:12.105Z,25.00
2019-06-20T00:25:40.975Z,25.10
2019-06-20T00:28:09.905Z,25.10
2019-06-20T00:30:39.281Z,25.00
2019-06-20T00:33:08.161Z,25.00
2019-06-20T00:35:37.073Z,25.00
2019-06-20T00:38:05.957Z,24.90
2019-06-20T00:40:34.809Z,24.90
2019-06-20T00:43:16.218Z,24.90
2019-06-20T00:45:34.239Z,24.90
2019-06-20T00:48:03.102Z,25.00
2019-06-20T00:50:32.008Z,25.00
2019-06-20T00:53:00.880Z,25.10
2019-06-20T00:55:29.740Z,25.20
2019-06-20T00:57:58.669Z,25.20
2019-06-20T01:00:27.563Z,25.20
2019-06-20T01:02:56.405Z,25.20
2019-06-20T01:05:25.321Z,25.20
2019-06-20T01:07:54.141Z,25.20
2019-06-20T01:10:22.984Z,25.20
2019-06-20T01:12:51.867Z,25.30
2019-06-20T01:15:20.801Z,25.40
2019-06-20T01:17:49.629Z,25.30
2019-06-20T01:20:19.436Z,25.40
2019-06-20T01:22:48.271Z,25.30
2019-06-20T01:25:20.048Z,25.30
2019-06-20T01:27:48.930Z,25.30
2019-06-20T01:30:17.952Z,25.30
2019-06-20T01:32:46.768Z,25.20
2019-06-20T01:35:15.917Z,25.20
2019-06-20T01:52:50.527Z,25.40
2019-06-20T01:55:19.377Z,25.40
2019-06-20T01:57:48.224Z,25.20
2019-06-20T02:00:44.080Z,25.20
2019-06-20T02:03:14.362Z,25.20
2019-06-20T02:05:43.495Z,25.10
2019-06-20T02:08:12.370Z,25.00
2019-06-20T02:10:41.224Z,25.10
2019-06-20T02:13:10.054Z,25.10
2019-06-20T02:15:39.060Z,25.10
2019-06-20T02:18:07.886Z,25.10
2019-06-20T02:20:45.589Z,25.10
2019-06-20T02:23:14.432Z,25.10
2019-06-20T02:25:43.276Z,25.10
2019-06-20T02:28:12.166Z,25.20
2019-06-20T02:30:40.989Z,25.10
2019-06-20T02:33:09.807Z,25.10
2019-06-20T02:35:38.677Z,25.10
2019-06-20T02:38:07.501Z,25.20
2019-06-20T02:40:36.425Z,25.10
2019-06-20T02:43:05.687Z,25.10
2019-06-20T02:45:35.067Z,25.10
2019-06-20T02:48:04.105Z,25.00
2019-06-20T02:50:32.969Z,25.00
2019-06-20T02:53:02.702Z,24.80
2019-06-20T02:55:31.517Z,24.90
2019-06-20T02:58:00.410Z,24.90
2019-06-20T03:00:44.123Z,24.80
2019-06-20T03:03:13.021Z,24.80
2019-06-20T03:05:41.854Z,24.80
2019-06-20T03:08:10.683Z,24.80
2019-06-20T03:10:39.665Z,24.70
2019-06-20T03:13:09.541Z,24.80
2019-06-20T03:15:38.529Z,24.70
2019-06-20T03:18:07.399Z,24.70
2019-06-20T03:20:36.246Z,24.70
2019-06-20T03:23:05.162Z,24.70
2019-06-20T03:25:34.759Z,24.70
2019-06-20T03:28:03.713Z,24.60
2019-06-20T03:30:32.547Z,24.60
2019-06-20T03:33:01.433Z,24.50
2019-06-20T03:35:30.255Z,24.60
2019-06-20T03:37:59.094Z,24.60
2019-06-20T03:40:28.004Z,24.60
2019-06-20T03:42:56.844Z,24.60
2019-06-20T03:45:25.665Z,24.50
2019-06-20T03:47:54.552Z,24.50
2019-06-20T03:50:23.364Z,24.40
2019-06-20T03:52:53.759Z,24.40
2019-06-20T03:55:22.632Z,24.40
2019-06-20T03:57:51.472Z,24.50
2019-06-20T04:00:22.984Z,24.50
2019-06-20T04:02:51.861Z,24.50
2019-06-20T04:05:20.684Z,24.50
2019-06-20T04:07:49.522Z,24.40
2019-06-20T04:10:18.428Z,24.40
2019-06-20T04:12:47.255Z,24.40
2019-06-20T04:15:19.330Z,24.30
2019-06-20T04:17:46.692Z,24.30
2019-06-20T04:20:15.548Z,24.30
2019-06-20T04:22:44.396Z,24.40
2019-06-20T04:25:13.381Z,24.60
2019-06-20T04:27:42.219Z,24.60
2019-06-20T04:30:11.033Z,24.60
2019-06-20T04:32:39.935Z,24.60
2019-06-20T04:35:08.856Z,24.60
2019-06-20T04:37:37.686Z,24.70
2019-06-20T04:40:09.932Z,24.70
2019-06-20T04:42:38.769Z,24.80
2019-06-20T04:45:09.505Z,24.80
2019-06-20T04:47:38.370Z,24.90
2019-06-20T04:50:07.308Z,25.10
2019-06-20T04:52:36.161Z,25.20
2019-06-20T04:55:06.131Z,25.30
2019-06-20T04:57:34.963Z,25.40
2019-06-20T05:00:05.609Z,25.40
2019-06-20T05:02:34.489Z,25.40
2019-06-20T05:05:05.478Z,25.40
2019-06-20T05:07:34.331Z,25.40
2019-06-20T05:10:04.124Z,25.40
2019-06-20T05:12:32.973Z,25.40
2019-06-20T05:15:01.807Z,25.40
2019-06-20T05:17:30.675Z,25.50
2019-06-20T05:19:59.489Z,25.70
2019-06-20T05:22:28.336Z,25.90
2019-06-20T05:24:57.202Z,25.90
2019-06-20T05:27:26.026Z,26.10
2019-06-20T05:29:54.840Z,26.20
2019-06-20T05:32:23.737Z,26.20
2019-06-20T05:34:52.555Z,26.40
2019-06-20T05:37:21.395Z,26.40
2019-06-20T05:39:50.271Z,26.50
2019-06-20T05:42:19.089Z,26.50
2019-06-20T05:44:47.914Z,26.50
2019-06-20T05:47:16.795Z,26.50
2019-06-20T05:49:45.629Z,26.50
2019-06-20T05:52:14.475Z,26.50
2019-06-20T05:54:43.342Z,26.60
2019-06-20T05:57:12.173Z,26.70
2019-06-20T05:59:40.995Z,26.80
2019-06-20T06:02:09.985Z,26.90
2019-06-20T06:04:38.814Z,26.90
2019-06-20T06:07:07.655Z,26.90
2019-06-20T06:09:36.546Z,26.90
2019-06-20T06:12:05.613Z,27.10
2019-06-20T06:14:34.451Z,27.20
2019-06-20T06:17:03.615Z,27.30
2019-06-20T06:19:32.558Z,27.40
2019-06-20T06:22:01.386Z,27.60
2019-06-20T06:24:30.283Z,27.60
2019-06-20T06:27:00.051Z,27.50
2019-06-20T06:29:29.144Z,27.50
2019-06-20T06:31:58.038Z,27.60
2019-06-20T06:34:26.848Z,27.70
2019-06-20T06:36:55.678Z,27.60
2019-06-20T06:39:24.549Z,27.50
2019-06-20T06:41:53.407Z,27.40
2019-06-20T06:44:22.218Z,27.50
2019-06-20T06:46:55.746Z,27.50
2019-06-20T06:49:21.562Z,27.80
2019-06-20T06:51:50.410Z,27.80
2019-06-20T06:54:19.300Z,28.00
2019-06-20T06:56:48.113Z,28.30
2019-06-20T06:59:16.942Z,28.30
2019-06-20T07:01:45.845Z,28.30
2019-06-20T07:04:14.672Z,28.40
2019-06-20T07:06:43.616Z,28.50
2019-06-20T07:09:12.794Z,28.50
2019-06-20T07:11:41.643Z,28.40
2019-06-20T07:14:10.476Z,28.70
2019-06-20T07:16:39.367Z,28.70
2019-06-20T07:19:08.220Z,28.70
2019-06-20T07:21:36.995Z,28.90
2019-06-20T07:24:05.896Z,28.90
2019-06-20T07:26:34.740Z,29.00
2019-06-20T07:29:03.584Z,29.20
2019-06-20T07:31:32.495Z,29.40
2019-06-20T07:34:01.317Z,29.40
2019-06-20T07:36:30.142Z,29.40
2019-06-20T07:38:59.624Z,29.80
2019-06-20T07:41:28.629Z,29.60
2019-06-20T07:43:57.734Z,29.80
2019-06-20T07:46:26.621Z,29.80
2019-06-20T07:48:55.852Z,29.90
2019-06-20T07:51:24.719Z,29.90
2019-06-20T07:53:53.736Z,30.00
2019-06-20T07:56:22.633Z,30.10
2019-06-20T07:58:51.712Z,30.20
2019-06-20T08:01:20.660Z,30.30
2019-06-20T08:03:49.546Z,30.30
2019-06-20T08:06:18.426Z,30.00
2019-06-20T08:08:47.296Z,30.10
2019-06-20T08:11:16.142Z,30.30
2019-06-20T08:13:44.987Z,30.40
2019-06-20T08:16:13.853Z,30.40
2019-06-20T08:18:42.679Z,30.30
2019-06-20T08:21:11.519Z,30.50
2019-06-20T08:23:40.423Z,30.50
2019-06-20T08:26:09.266Z,30.60
2019-06-20T08:28:38.093Z,30.80
2019-06-20T08:31:06.973Z,30.80
2019-06-20T08:33:35.796Z,30.80
2019-06-20T08:36:06.570Z,31.10
2019-06-20T08:38:35.930Z,31.20
2019-06-20T08:41:06.414Z,31.20
2019-06-20T08:43:35.668Z,31.00
2019-06-20T08:46:09.935Z,31.10
2019-06-20T08:48:35.125Z,31.20
2019-06-20T08:51:04.511Z,31.40
2019-06-20T08:53:33.569Z,31.40
2019-06-20T08:56:03.197Z,31.60
2019-06-20T08:58:32.103Z,31.50
2019-06-20T09:03:31.474Z,31.50
2019-06-20T09:06:00.286Z,31.60
2019-06-20T09:08:29.176Z,31.40
2019-06-20T09:10:58.018Z,31.40
2019-06-20T09:13:26.890Z,31.60
2019-06-20T09:15:56.780Z,31.70
2019-06-20T09:18:25.821Z,31.80
2019-06-20T09:20:55.860Z,32.00
2019-06-20T09:23:25.217Z,32.10
2019-06-20T09:25:55.852Z,32.20
2019-06-20T09:28:24.542Z,32.20
2019-06-20T09:30:53.932Z,32.20
2019-06-20T09:33:23.890Z,32.20
2019-06-20T09:35:53.877Z,32.20
2019-06-20T09:38:24.420Z,32.30
2019-06-20T09:40:53.260Z,32.30
2019-06-20T09:43:27.591Z,32.40
2019-06-20T09:45:53.159Z,32.40
2019-06-20T09:48:23.096Z,32.50
2019-06-20T09:50:52.991Z,32.40
2019-06-20T09:53:22.479Z,32.30
2019-06-20T09:55:51.793Z,32.40
2019-06-20T09:58:20.805Z,32.30
2019-06-20T10:00:50.741Z,32.40
2019-06-20T10:03:20.023Z,32.50
2019-06-20T10:05:49.284Z,32.40
2019-06-20T10:08:19.390Z,32.40
2019-06-20T10:10:49.331Z,32.50
2019-06-20T10:13:18.710Z,32.70
2019-06-20T10:15:47.958Z,32.80
2019-06-20T10:18:17.280Z,32.80
2019-06-20T10:20:47.179Z,32.70
2019-06-20T10:23:16.087Z,32.80
2019-06-20T10:25:46.024Z,32.90
2019-06-20T10:28:15.376Z,33.10
2019-06-20T10:30:44.783Z,33.00
2019-06-20T10:33:13.786Z,32.90
2019-06-20T10:35:45.119Z,33.00
2019-06-20T10:38:13.146Z,33.10
2019-06-20T10:40:41.975Z,33.20
2019-06-20T10:43:10.809Z,33.30
2019-06-20T10:45:39.890Z,33.30
2019-06-20T10:48:08.796Z,33.20
2019-06-20T10:50:37.622Z,33.20
2019-06-20T10:53:07.026Z,33.30
2019-06-20T10:55:35.837Z,33.40
2019-06-20T10:58:04.681Z,33.50
2019-06-20T11:00:33.951Z,33.50
2019-06-20T11:03:02.773Z,33.40
2019-06-20T11:05:31.582Z,33.30
2019-06-20T11:08:00.452Z,33.40
2019-06-20T11:10:30.093Z,33.30
2019-06-20T11:12:58.940Z,33.40
2019-06-20T11:15:29.020Z,33.20
2019-06-20T11:17:57.845Z,33.20
2019-06-20T11:20:27.189Z,33.30
2019-06-20T11:22:56.082Z,33.40
2019-06-20T11:25:24.917Z,33.50
2019-06-20T11:27:53.739Z,33.40
2019-06-20T11:30:25.408Z,33.40
2019-06-20T11:32:54.250Z,33.30
2019-06-20T11:35:23.071Z,33.30
2019-06-20T11:37:51.966Z,33.30
2019-06-20T11:40:21.302Z,33.40
2019-06-20T11:42:50.143Z,33.40
2019-06-20T11:45:19.207Z,33.30
2019-06-20T11:47:48.059Z,33.40
2019-06-20T11:50:17.962Z,33.50
2019-06-20T11:52:46.817Z,33.50
2019-06-20T11:55:16.257Z,33.40
2019-06-20T11:57:45.136Z,33.50
2019-06-20T12:00:15.186Z,33.60
2019-06-20T12:02:44.459Z,33.60
2019-06-20T12:05:15.526Z,33.60
2019-06-20T12:07:45.636Z,33.50
2019-06-20T12:10:15.711Z,33.50
2019-06-20T12:12:44.779Z,33.60
2019-06-20T12:15:16.875Z,33.50
2019-06-20T12:17:47.202Z,33.30
2019-06-20T12:20:17.257Z,33.40
2019-06-20T12:22:46.629Z,33.50
2019-06-20T12:25:16.696Z,33.60
2019-06-20T12:27:45.697Z,33.60
2019-06-20T12:30:16.334Z,33.60
2019-06-20T12:32:46.669Z,33.60
2019-06-20T12:35:16.053Z,33.60
2019-06-20T12:37:45.264Z,33.70
2019-06-20T12:40:16.220Z,33.60
2019-06-20T12:42:45.042Z,33.70
2019-06-20T12:45:15.824Z,33.50
2019-06-20T12:47:45.938Z,33.40
2019-06-20T12:50:16.296Z,33.40
2019-06-20T12:52:45.699Z,33.40
2019-06-20T12:55:16.684Z,33.40
2019-06-20T12:57:46.351Z,33.30
2019-06-20T13:00:16.503Z,33.30
2019-06-20T13:02:45.587Z,33.30
2019-06-20T13:05:16.554Z,33.10
2019-06-20T13:07:46.465Z,33.10
2019-06-20T13:10:16.439Z,33.30
2019-06-20T13:12:46.342Z,33.30
2019-06-20T13:15:16.243Z,33.40
2019-06-20T13:17:46.460Z,33.40
2019-06-20T13:20:16.254Z,33.50
2019-06-20T13:22:46.445Z,33.40
2019-06-20T13:25:15.737Z,33.40
2019-06-20T13:27:45.671Z,33.30
2019-06-20T13:30:15.517Z,33.30
2019-06-20T13:32:45.373Z,33.30
2019-06-20T13:35:15.484Z,33.30
2019-06-20T13:37:45.718Z,33.30
2019-06-20T13:40:15.659Z,33.40
2019-06-20T13:42:45.947Z,33.40
2019-06-20T13:45:20.938Z,33.50
2019-06-20T13:47:49.993Z,33.50
2019-06-20T13:50:20.308Z,33.40
2019-06-20T13:52:51.054Z,33.30
2019-06-20T13:55:19.943Z,33.20
2019-06-20T13:57:49.236Z,33.10
2019-06-20T14:00:20.537Z,33.10
2019-06-20T14:02:51.144Z,33.20
2019-06-20T14:05:19.835Z,33.20
2019-06-20T14:07:53.226Z,33.20
2019-06-20T14:10:19.376Z,33.20
2019-06-20T14:12:48.860Z,33.20
2019-06-20T14:15:19.106Z,33.20
2019-06-20T14:17:49.795Z,33.10
2019-06-20T14:20:19.858Z,33.00
2019-06-20T14:22:49.625Z,32.80
2019-06-20T14:25:20.307Z,32.90
2019-06-20T14:27:49.582Z,32.90
2019-06-20T14:30:21.066Z,32.90
2019-06-20T14:32:51.281Z,32.80
2019-06-20T14:35:20.814Z,32.80
2019-06-20T14:37:51.567Z,32.70
2019-06-20T14:40:20.653Z,32.70
2019-06-20T14:42:50.294Z,32.70
2019-06-20T14:45:19.797Z,32.70
2019-06-20T14:47:48.584Z,32.60
2019-06-20T14:50:18.568Z,32.50
2019-06-20T14:52:48.513Z,32.50
2019-06-20T14:55:18.508Z,32.30
2019-06-20T14:57:48.480Z,32.30
2019-06-20T15:00:19.480Z,32.40
2019-06-20T15:02:53.085Z,32.40
2019-06-20T15:05:19.555Z,32.30
2019-06-20T15:07:49.582Z,32.40
2019-06-20T15:10:19.017Z,32.50
2019-06-20T15:12:49.442Z,32.50
2019-06-20T15:15:18.460Z,32.40
2019-06-20T15:17:49.878Z,32.50
2019-06-20T15:20:17.844Z,32.50
2019-06-20T15:22:47.428Z,32.50
2019-06-20T15:25:17.280Z,32.40
2019-06-20T15:27:48.080Z,32.40
2019-06-20T15:30:18.150Z,32.30
2019-06-20T15:33:01.157Z,32.30
2019-06-20T15:35:18.382Z,32.30
2019-06-20T15:37:48.364Z,32.30
2019-06-20T15:40:18.730Z,32.30
2019-06-20T15:42:49.191Z,32.20
2019-06-20T15:45:18.293Z,32.20
2019-06-20T15:47:47.096Z,32.20
2019-06-20T15:50:16.009Z,32.20
2019-06-20T15:52:44.901Z,32.30
2019-06-20T15:55:15.299Z,32.30
2019-06-20T15:57:44.198Z,32.30
2019-06-20T16:00:13.716Z,32.10
2019-06-20T16:02:42.530Z,32.00
2019-06-20T16:05:12.556Z,32.00
2019-06-20T16:07:41.419Z,32.00
2019-06-20T16:10:10.351Z,32.00
2019-06-20T16:12:39.186Z,32.00
2019-06-20T16:15:10.440Z,32.10
2019-06-20T16:17:39.245Z,32.10
2019-06-20T16:20:08.356Z,32.10
2019-06-20T16:22:37.271Z,32.20
2019-06-20T16:25:07.843Z,32.10
2019-06-20T16:27:36.676Z,32.10
2019-06-20T16:30:09.292Z,32.10
2019-06-20T16:32:38.098Z,32.10
2019-06-20T16:35:10.065Z,32.10
2019-06-20T16:37:38.950Z,32.00
2019-06-20T16:40:10.693Z,32.00
2019-06-20T16:42:43.145Z,32.00
2019-06-20T16:45:12.868Z,32.00
2019-06-20T16:47:41.720Z,32.00
2019-06-20T16:50:10.754Z,32.00
2019-06-20T16:52:39.645Z,32.10
2019-06-20T16:55:17.750Z,32.10
2019-06-20T16:57:46.669Z,32.20
2019-06-20T17:00:17.270Z,32.30
2019-06-20T17:02:46.063Z,32.20
2019-06-20T17:05:20.499Z,32.20
2019-06-20T17:07:49.343Z,32.20
2019-06-20T17:10:18.949Z,32.10
2019-06-20T17:12:47.835Z,32.10
2019-06-20T17:15:22.695Z,32.00
2019-06-20T17:17:51.554Z,32.00
2019-06-20T17:20:21.296Z,31.90
2019-06-20T17:22:50.098Z,31.90
2019-06-20T17:25:19.085Z,31.90
2019-06-20T17:27:47.966Z,31.90
2019-06-20T17:30:24.252Z,31.80
2019-06-20T17:32:53.159Z,31.90
2019-06-20T17:35:23.023Z,31.70
2019-06-20T17:37:51.860Z,31.60
2019-06-20T17:40:28.033Z,31.50
2019-06-20T17:42:56.883Z,31.40
2019-06-20T17:45:26.207Z,31.40
2019-06-20T17:47:55.110Z,31.40
2019-06-20T17:50:26.004Z,31.40
2019-06-20T17:52:54.951Z,31.40
2019-06-20T17:55:23.819Z,31.30
2019-06-20T17:57:52.663Z,31.20
2019-06-20T18:00:22.103Z,31.10
2019-06-20T18:02:50.991Z,31.20
2019-06-20T18:05:20.373Z,31.10
2019-06-20T18:07:49.234Z,31.00
2019-06-20T18:10:18.920Z,31.00
2019-06-20T18:12:47.776Z,31.00
2019-06-20T18:15:16.941Z,31.00
2019-06-20T18:17:45.852Z,30.90
2019-06-20T18:20:16.224Z,30.80
2019-06-20T18:22:45.144Z,30.60
2019-06-20T18:25:16.328Z,30.60
2019-06-20T18:27:45.224Z,30.40
2019-06-20T18:30:16.442Z,30.40
2019-06-20T18:32:45.292Z,30.30
2019-06-20T18:35:14.126Z,30.20
2019-06-20T18:37:43.090Z,30.10
2019-06-20T18:40:12.212Z,30.00
2019-06-20T18:42:41.111Z,29.90
2019-06-20T18:45:11.309Z,29.80
2019-06-20T18:47:40.156Z,29.70
2019-06-20T18:50:09.489Z,29.70
2019-06-20T18:52:51.149Z,29.70
2019-06-20T18:55:09.491Z,29.60
2019-06-20T18:57:38.353Z,29.60
2019-06-20T19:00:09.936Z,29.60
2019-06-20T19:02:38.890Z,29.40
2019-06-20T19:05:08.636Z,29.40
2019-06-20T19:07:37.526Z,29.30
2019-06-20T19:10:07.883Z,29.30
2019-06-20T19:12:36.747Z,29.10
2019-06-20T19:15:09.650Z,29.00
2019-06-20T19:17:38.492Z,29.00
2019-06-20T19:20:07.943Z,28.90
2019-06-20T19:22:36.848Z,28.80
2019-06-20T19:25:09.309Z,28.70
2019-06-20T19:27:46.169Z,28.80
2019-06-20T19:30:10.847Z,28.80
2019-06-20T19:32:39.727Z,28.80
2019-06-20T19:35:10.337Z,28.80
2019-06-20T19:37:39.516Z,28.80
2019-06-20T19:40:09.039Z,28.70
2019-06-20T19:42:38.002Z,28.70
2019-06-20T19:45:13.243Z,28.70
2019-06-20T19:47:42.399Z,28.60
2019-06-20T19:50:11.765Z,28.60
2019-06-20T19:52:40.843Z,28.60
2019-06-20T19:55:10.092Z,28.50
2019-06-20T19:57:38.947Z,28.50
2019-06-20T20:00:08.659Z,28.40
2019-06-20T20:02:37.498Z,28.30
2019-06-20T20:05:19.091Z,28.30
2019-06-20T20:07:40.147Z,28.20
2019-06-20T20:10:09.795Z,28.30
2019-06-20T20:12:38.626Z,28.30
2019-06-20T20:15:10.135Z,28.20
2019-06-20T20:17:38.965Z,28.20
2019-06-20T20:20:09.403Z,28.20
2019-06-20T20:22:39.750Z,28.10
2019-06-20T20:25:09.810Z,28.00
2019-06-20T20:27:38.623Z,28.10
2019-06-20T20:30:11.260Z,28.00
2019-06-20T20:32:40.109Z,27.80
2019-06-20T20:35:08.965Z,27.70
2019-06-20T20:37:37.961Z,27.60
2019-06-20T20:40:08.596Z,27.40
2019-06-20T20:42:37.445Z,27.40
2019-06-20T20:45:07.893Z,27.30
2019-06-20T20:47:37.133Z,27.30
2019-06-20T20:50:06.970Z,27.30
2019-06-20T20:52:35.861Z,27.30
2019-06-20T20:55:09.710Z,27.40
2019-06-20T20:57:38.531Z,27.50
2019-06-20T21:00:28.200Z,27.40
2019-06-20T21:02:57.063Z,27.30
2019-06-20T21:05:25.904Z,27.20
2019-06-20T21:08:06.947Z,27.10
2019-06-20T21:10:35.808Z,27.00
2019-06-20T21:13:04.665Z,26.90
2019-06-20T21:15:33.546Z,26.80
2019-06-20T21:18:02.470Z,26.70
2019-06-20T21:20:31.275Z,26.80
2019-06-20T21:23:00.209Z,26.90
2019-06-20T21:25:32.045Z,26.90
2019-06-20T21:27:59.565Z,27.00
2019-06-20T21:30:28.457Z,27.00
2019-06-20T21:32:57.416Z,26.80
2019-06-20T21:35:26.280Z,26.80
2019-06-20T21:37:55.214Z,26.80
2019-06-20T21:40:24.055Z,26.80
2019-06-20T21:43:04.907Z,26.80
2019-06-20T21:45:33.752Z,26.70
2019-06-20T21:48:02.627Z,26.60
2019-06-20T21:50:31.493Z,26.50
2019-06-20T21:53:00.433Z,26.40
2019-06-20T21:55:29.273Z,26.30
2019-06-20T21:57:58.196Z,26.20
2019-06-20T22:00:40.264Z,26.10
2019-06-20T22:03:10.260Z,26.10
2019-06-20T22:05:39.818Z,26.00
2019-06-20T22:08:08.650Z,25.90
2019-06-20T22:10:37.549Z,25.80
2019-06-20T22:13:06.692Z,25.80
2019-06-20T22:15:35.547Z,25.70
2019-06-20T22:18:04.791Z,25.70
2019-06-20T22:20:33.737Z,25.60
2019-06-20T22:23:02.587Z,25.60
2019-06-20T22:25:31.461Z,25.60
2019-06-20T22:28:05.245Z,25.60
2019-06-20T22:30:43.126Z,25.60
2019-06-20T22:33:11.981Z,25.60
2019-06-20T22:35:40.851Z,25.60
2019-06-20T22:38:09.773Z,25.60
2019-06-20T22:40:38.626Z,25.50
2019-06-20T22:43:08.567Z,25.60
2019-06-20T22:45:37.446Z,25.50
2019-06-20T22:48:06.412Z,25.40
2019-06-20T22:50:35.261Z,25.40
2019-06-20T22:53:04.287Z,25.40
2019-06-20T22:55:33.131Z,25.40
2019-06-20T22:58:01.999Z,25.30
2019-06-20T23:00:30.881Z,25.40
2019-06-20T23:02:59.733Z,25.40
2019-06-20T23:05:28.588Z,25.30
2019-06-20T23:07:57.536Z,25.20
2019-06-20T23:10:26.388Z,25.20
2019-06-20T23:12:55.235Z,25.20
2019-06-20T23:15:24.303Z,25.20
2019-06-20T23:17:53.143Z,25.20
2019-06-20T23:20:22.093Z,25.30
2019-06-20T23:22:51.002Z,25.30
2019-06-20T23:25:19.873Z,25.20
2019-06-20T23:27:48.684Z,25.20
2019-06-20T23:30:18.258Z,25.10
2019-06-20T23:32:47.132Z,25.00
2019-06-20T23:35:15.993Z,25.00
2019-06-20T23:37:44.884Z,25.00
2019-06-20T23:40:13.846Z,25.10
2019-06-20T23:42:42.690Z,25.10
2019-06-20T23:45:11.714Z,25.00
2019-06-20T23:47:40.557Z,25.00
2019-06-20T23:50:20.197Z,25.00
2019-06-20T23:52:58.304Z,24.90
2019-06-20T23:55:27.192Z,24.80
2019-06-20T23:57:56.037Z,24.70
